sensor_id;sensor_type;location;lat;lon;timestamp;P1;durP1;ratioP1;P2;durP2;ratioP2
20976;SDS011;10647;51.016;3.720;2023-04-19T00:01:19;28.90;;;18.43;;
20976;SDS011;10647;51.016;3.720;2023-04-19T00:03:48;32.90;;;17.83;;
20976;SDS011;10647;51.016;3.720;2023-04-19T00:09:06;31.00;;;18.97;;
20976;SDS011;10647;51.016;3.720;2023-04-19T00:11:34;29.43;;;18.27;;
20976;SDS011;10647;51.016;3.720;2023-04-19T00:14:03;29.27;;;18.47;;
20976;SDS011;10647;51.016;3.720;2023-04-19T00:16:33;29.57;;;19.00;;
20976;SDS011;10647;51.016;3.720;2023-04-19T00:19:02;29.70;;;19.53;;
20976;SDS011;10647;51.016;3.720;2023-04-19T00:24:17;31.23;;;19.17;;
20976;SDS011;10647;51.016;3.720;2023-04-19T00:26:44;32.37;;;19.33;;
20976;SDS011;10647;51.016;3.720;2023-04-19T00:31:59;27.23;;;17.57;;
20976;SDS011;10647;51.016;3.720;2023-04-19T00:34:34;30.33;;;19.93;;
20976;SDS011;10647;51.016;3.720;2023-04-19T00:37:08;30.47;;;19.23;;
20976;SDS011;10647;51.016;3.720;2023-04-19T00:39:38;28.83;;;18.13;;
20976;SDS011;10647;51.016;3.720;2023-04-19T00:42:06;31.57;;;20.03;;
20976;SDS011;10647;51.016;3.720;2023-04-19T00:44:34;30.40;;;17.40;;
20976;SDS011;10647;51.016;3.720;2023-04-19T00:47:07;30.43;;;18.27;;
20976;SDS011;10647;51.016;3.720;2023-04-19T00:49:35;31.47;;;17.67;;
20976;SDS011;10647;51.016;3.720;2023-04-19T00:52:02;30.17;;;18.93;;
20976;SDS011;10647;51.016;3.720;2023-04-19T00:54:33;27.73;;;17.37;;
20976;SDS011;10647;51.016;3.720;2023-04-19T00:57:02;31.40;;;19.13;;
20976;SDS011;10647;51.016;3.720;2023-04-19T00:59:29;29.50;;;20.40;;
20976;SDS011;10647;51.016;3.720;2023-04-19T01:01:58;30.90;;;20.20;;
20976;SDS011;10647;51.016;3.720;2023-04-19T01:04:26;31.63;;;20.53;;
20976;SDS011;10647;51.016;3.720;2023-04-19T01:06:54;32.23;;;20.43;;
20976;SDS011;10647;51.016;3.720;2023-04-19T01:09:27;32.33;;;20.90;;
20976;SDS011;10647;51.016;3.720;2023-04-19T01:11:55;32.57;;;19.00;;
20976;SDS011;10647;51.016;3.720;2023-04-19T01:14:23;29.40;;;18.67;;
20976;SDS011;10647;51.016;3.720;2023-04-19T01:16:51;30.87;;;19.43;;
20976;SDS011;10647;51.016;3.720;2023-04-19T01:19:19;29.13;;;18.13;;
20976;SDS011;10647;51.016;3.720;2023-04-19T01:21:46;28.07;;;17.70;;
20976;SDS011;10647;51.016;3.720;2023-04-19T01:24:14;32.00;;;19.43;;
20976;SDS011;10647;51.016;3.720;2023-04-19T01:26:42;29.47;;;19.77;;
20976;SDS011;10647;51.016;3.720;2023-04-19T01:29:09;30.63;;;20.77;;
20976;SDS011;10647;51.016;3.720;2023-04-19T01:31:37;31.70;;;19.40;;
20976;SDS011;10647;51.016;3.720;2023-04-19T01:34:04;30.80;;;19.07;;
20976;SDS011;10647;51.016;3.720;2023-04-19T01:36:32;34.17;;;20.97;;
20976;SDS011;10647;51.016;3.720;2023-04-19T01:39:00;34.10;;;19.70;;
20976;SDS011;10647;51.016;3.720;2023-04-19T01:41:27;33.17;;;21.17;;
20976;SDS011;10647;51.016;3.720;2023-04-19T01:43:55;32.07;;;19.73;;
20976;SDS011;10647;51.016;3.720;2023-04-19T01:46:23;32.77;;;21.33;;
20976;SDS011;10647;51.016;3.720;2023-04-19T01:48:50;33.13;;;20.60;;
20976;SDS011;10647;51.016;3.720;2023-04-19T01:51:18;32.87;;;21.87;;
20976;SDS011;10647;51.016;3.720;2023-04-19T01:53:46;32.47;;;20.60;;
20976;SDS011;10647;51.016;3.720;2023-04-19T01:56:19;31.00;;;20.67;;
20976;SDS011;10647;51.016;3.720;2023-04-19T01:58:47;33.63;;;19.97;;
20976;SDS011;10647;51.016;3.720;2023-04-19T02:01:16;31.83;;;20.60;;
20976;SDS011;10647;51.016;3.720;2023-04-19T02:03:49;34.73;;;21.33;;
20976;SDS011;10647;51.016;3.720;2023-04-19T02:06:17;35.63;;;21.30;;
20976;SDS011;10647;51.016;3.720;2023-04-19T02:08:44;32.10;;;19.50;;
20976;SDS011;10647;51.016;3.720;2023-04-19T02:11:12;34.47;;;21.67;;
20976;SDS011;10647;51.016;3.720;2023-04-19T02:13:40;34.83;;;20.73;;
20976;SDS011;10647;51.016;3.720;2023-04-19T02:16:10;35.57;;;21.63;;
20976;SDS011;10647;51.016;3.720;2023-04-19T02:18:38;34.57;;;20.50;;
20976;SDS011;10647;51.016;3.720;2023-04-19T02:21:06;34.27;;;20.93;;
20976;SDS011;10647;51.016;3.720;2023-04-19T02:23:54;32.80;;;19.77;;
20976;SDS011;10647;51.016;3.720;2023-04-19T02:26:23;31.63;;;19.80;;
20976;SDS011;10647;51.016;3.720;2023-04-19T02:28:51;34.37;;;21.30;;
20976;SDS011;10647;51.016;3.720;2023-04-19T02:31:21;33.50;;;21.57;;
20976;SDS011;10647;51.016;3.720;2023-04-19T02:33:50;33.20;;;19.87;;
20976;SDS011;10647;51.016;3.720;2023-04-19T02:36:17;35.07;;;22.07;;
20976;SDS011;10647;51.016;3.720;2023-04-19T02:38:48;32.83;;;20.93;;
20976;SDS011;10647;51.016;3.720;2023-04-19T02:41:15;38.90;;;21.10;;
20976;SDS011;10647;51.016;3.720;2023-04-19T02:43:43;36.87;;;21.17;;
20976;SDS011;10647;51.016;3.720;2023-04-19T02:46:10;36.00;;;22.50;;
20976;SDS011;10647;51.016;3.720;2023-04-19T02:48:38;36.60;;;22.60;;
20976;SDS011;10647;51.016;3.720;2023-04-19T02:51:05;34.90;;;22.17;;
20976;SDS011;10647;51.016;3.720;2023-04-19T02:53:33;37.13;;;22.30;;
20976;SDS011;10647;51.016;3.720;2023-04-19T02:56:01;36.57;;;22.33;;
20976;SDS011;10647;51.016;3.720;2023-04-19T02:58:28;35.63;;;22.80;;
20976;SDS011;10647;51.016;3.720;2023-04-19T03:00:56;34.97;;;20.97;;
20976;SDS011;10647;51.016;3.720;2023-04-19T03:03:25;34.27;;;22.10;;
20976;SDS011;10647;51.016;3.720;2023-04-19T03:05:53;37.43;;;20.87;;
20976;SDS011;10647;51.016;3.720;2023-04-19T03:08:20;36.40;;;22.20;;
20976;SDS011;10647;51.016;3.720;2023-04-19T03:13:35;40.37;;;24.47;;
20976;SDS011;10647;51.016;3.720;2023-04-19T03:16:02;37.50;;;24.10;;
20976;SDS011;10647;51.016;3.720;2023-04-19T03:18:32;35.97;;;22.97;;
20976;SDS011;10647;51.016;3.720;2023-04-19T03:23:55;36.83;;;22.87;;
20976;SDS011;10647;51.016;3.720;2023-04-19T03:26:28;33.23;;;20.93;;
20976;SDS011;10647;51.016;3.720;2023-04-19T03:28:56;36.63;;;21.73;;
20976;SDS011;10647;51.016;3.720;2023-04-19T03:31:24;35.87;;;23.40;;
20976;SDS011;10647;51.016;3.720;2023-04-19T03:33:55;37.33;;;22.03;;
20976;SDS011;10647;51.016;3.720;2023-04-19T03:38:52;36.97;;;23.63;;
20976;SDS011;10647;51.016;3.720;2023-04-19T03:41:21;36.17;;;21.90;;
20976;SDS011;10647;51.016;3.720;2023-04-19T03:43:51;35.70;;;23.17;;
20976;SDS011;10647;51.016;3.720;2023-04-19T03:46:18;33.93;;;22.00;;
20976;SDS011;10647;51.016;3.720;2023-04-19T03:48:46;36.40;;;22.80;;
20976;SDS011;10647;51.016;3.720;2023-04-19T03:51:13;35.03;;;21.43;;
20976;SDS011;10647;51.016;3.720;2023-04-19T03:53:42;34.73;;;21.63;;
20976;SDS011;10647;51.016;3.720;2023-04-19T03:56:10;34.00;;;21.83;;
20976;SDS011;10647;51.016;3.720;2023-04-19T03:58:37;33.17;;;21.00;;
20976;SDS011;10647;51.016;3.720;2023-04-19T04:01:05;34.17;;;22.73;;
20976;SDS011;10647;51.016;3.720;2023-04-19T04:03:33;35.87;;;23.17;;
20976;SDS011;10647;51.016;3.720;2023-04-19T04:06:01;35.77;;;22.47;;
20976;SDS011;10647;51.016;3.720;2023-04-19T04:08:28;32.60;;;22.17;;
20976;SDS011;10647;51.016;3.720;2023-04-19T04:10:56;34.37;;;22.60;;
20976;SDS011;10647;51.016;3.720;2023-04-19T04:13:23;35.10;;;21.87;;
20976;SDS011;10647;51.016;3.720;2023-04-19T04:15:51;33.93;;;22.43;;
20976;SDS011;10647;51.016;3.720;2023-04-19T04:18:19;34.73;;;21.90;;
20976;SDS011;10647;51.016;3.720;2023-04-19T04:20:46;33.87;;;22.07;;
20976;SDS011;10647;51.016;3.720;2023-04-19T04:23:14;34.43;;;21.83;;
20976;SDS011;10647;51.016;3.720;2023-04-19T04:25:43;36.13;;;23.20;;
20976;SDS011;10647;51.016;3.720;2023-04-19T04:28:12;32.87;;;21.50;;
20976;SDS011;10647;51.016;3.720;2023-04-19T04:30:40;34.10;;;21.67;;
20976;SDS011;10647;51.016;3.720;2023-04-19T04:33:10;34.10;;;21.13;;
20976;SDS011;10647;51.016;3.720;2023-04-19T04:35:38;35.30;;;20.97;;
20976;SDS011;10647;51.016;3.720;2023-04-19T04:38:06;31.00;;;20.37;;
20976;SDS011;10647;51.016;3.720;2023-04-19T04:40:34;34.20;;;21.73;;
20976;SDS011;10647;51.016;3.720;2023-04-19T04:43:09;33.07;;;21.20;;
20976;SDS011;10647;51.016;3.720;2023-04-19T04:45:36;33.37;;;21.03;;
20976;SDS011;10647;51.016;3.720;2023-04-19T04:50:51;33.63;;;22.20;;
20976;SDS011;10647;51.016;3.720;2023-04-19T04:56:05;34.17;;;21.87;;
20976;SDS011;10647;51.016;3.720;2023-04-19T04:58:34;34.43;;;20.93;;
20976;SDS011;10647;51.016;3.720;2023-04-19T05:01:07;35.20;;;20.30;;
20976;SDS011;10647;51.016;3.720;2023-04-19T05:03:35;32.63;;;19.57;;
20976;SDS011;10647;51.016;3.720;2023-04-19T05:06:02;36.17;;;20.67;;
20976;SDS011;10647;51.016;3.720;2023-04-19T05:08:30;35.00;;;20.03;;
20976;SDS011;10647;51.016;3.720;2023-04-19T05:11:03;33.07;;;21.43;;
20976;SDS011;10647;51.016;3.720;2023-04-19T05:13:31;34.13;;;21.00;;
20976;SDS011;10647;51.016;3.720;2023-04-19T05:15:59;32.13;;;20.43;;
20976;SDS011;10647;51.016;3.720;2023-04-19T05:18:30;33.20;;;20.30;;
20976;SDS011;10647;51.016;3.720;2023-04-19T05:20:57;33.37;;;19.07;;
20976;SDS011;10647;51.016;3.720;2023-04-19T05:23:25;30.70;;;20.53;;
20976;SDS011;10647;51.016;3.720;2023-04-19T05:25:55;33.37;;;20.57;;
20976;SDS011;10647;51.016;3.720;2023-04-19T05:28:22;30.73;;;19.90;;
20976;SDS011;10647;51.016;3.720;2023-04-19T05:30:52;33.57;;;20.50;;
20976;SDS011;10647;51.016;3.720;2023-04-19T05:33:21;30.67;;;19.80;;
20976;SDS011;10647;51.016;3.720;2023-04-19T05:35:49;35.00;;;20.20;;
20976;SDS011;10647;51.016;3.720;2023-04-19T05:38:18;34.20;;;20.77;;
20976;SDS011;10647;51.016;3.720;2023-04-19T05:40:51;32.23;;;19.43;;
20976;SDS011;10647;51.016;3.720;2023-04-19T05:43:19;28.13;;;18.23;;
20976;SDS011;10647;51.016;3.720;2023-04-19T05:45:47;28.83;;;18.77;;
20976;SDS011;10647;51.016;3.720;2023-04-19T05:48:15;31.60;;;19.53;;
20976;SDS011;10647;51.016;3.720;2023-04-19T05:50:42;29.67;;;18.60;;
20976;SDS011;10647;51.016;3.720;2023-04-19T05:53:10;27.83;;;18.40;;
20976;SDS011;10647;51.016;3.720;2023-04-19T05:55:37;29.57;;;18.27;;
20976;SDS011;10647;51.016;3.720;2023-04-19T05:58:05;30.77;;;19.00;;
20976;SDS011;10647;51.016;3.720;2023-04-19T06:00:33;27.37;;;17.87;;
20976;SDS011;10647;51.016;3.720;2023-04-19T06:03:00;32.13;;;20.40;;
20976;SDS011;10647;51.016;3.720;2023-04-19T06:05:29;28.70;;;17.23;;
20976;SDS011;10647;51.016;3.720;2023-04-19T06:07:56;29.23;;;18.10;;
20976;SDS011;10647;51.016;3.720;2023-04-19T06:10:25;29.33;;;18.87;;
20976;SDS011;10647;51.016;3.720;2023-04-19T06:12:52;27.67;;;18.37;;
20976;SDS011;10647;51.016;3.720;2023-04-19T06:15:20;29.60;;;17.73;;
20976;SDS011;10647;51.016;3.720;2023-04-19T06:17:47;31.67;;;20.27;;
20976;SDS011;10647;51.016;3.720;2023-04-19T06:20:15;29.33;;;17.93;;
20976;SDS011;10647;51.016;3.720;2023-04-19T06:22:48;28.43;;;17.57;;
20976;SDS011;10647;51.016;3.720;2023-04-19T06:25:11;30.17;;;20.30;;
20976;SDS011;10647;51.016;3.720;2023-04-19T06:27:39;31.27;;;18.50;;
20976;SDS011;10647;51.016;3.720;2023-04-19T06:30:07;31.90;;;20.23;;
20976;SDS011;10647;51.016;3.720;2023-04-19T06:32:35;29.17;;;18.70;;
20976;SDS011;10647;51.016;3.720;2023-04-19T06:35:04;29.33;;;18.33;;
20976;SDS011;10647;51.016;3.720;2023-04-19T06:37:32;27.93;;;18.07;;
20976;SDS011;10647;51.016;3.720;2023-04-19T06:40:00;28.03;;;18.07;;
20976;SDS011;10647;51.016;3.720;2023-04-19T06:42:30;28.40;;;18.60;;
20976;SDS011;10647;51.016;3.720;2023-04-19T06:44:58;29.00;;;18.17;;
20976;SDS011;10647;51.016;3.720;2023-04-19T06:47:26;29.33;;;18.43;;
20976;SDS011;10647;51.016;3.720;2023-04-19T06:49:54;25.80;;;18.17;;
20976;SDS011;10647;51.016;3.720;2023-04-19T06:52:22;21.87;;;14.83;;
20976;SDS011;10647;51.016;3.720;2023-04-19T06:54:50;27.13;;;16.53;;
20976;SDS011;10647;51.016;3.720;2023-04-19T06:57:17;27.77;;;17.20;;
20976;SDS011;10647;51.016;3.720;2023-04-19T06:59:45;24.50;;;15.17;;
20976;SDS011;10647;51.016;3.720;2023-04-19T07:02:12;24.23;;;15.93;;
20976;SDS011;10647;51.016;3.720;2023-04-19T07:04:40;25.93;;;17.60;;
20976;SDS011;10647;51.016;3.720;2023-04-19T07:07:07;23.90;;;17.17;;
20976;SDS011;10647;51.016;3.720;2023-04-19T07:09:35;24.57;;;17.67;;
20976;SDS011;10647;51.016;3.720;2023-04-19T07:12:02;23.80;;;15.63;;
20976;SDS011;10647;51.016;3.720;2023-04-19T07:14:30;20.87;;;14.27;;
20976;SDS011;10647;51.016;3.720;2023-04-19T07:16:58;22.17;;;15.10;;
20976;SDS011;10647;51.016;3.720;2023-04-19T07:19:26;22.77;;;14.87;;
20976;SDS011;10647;51.016;3.720;2023-04-19T07:21:53;22.37;;;15.17;;
20976;SDS011;10647;51.016;3.720;2023-04-19T07:24:21;25.50;;;15.43;;
20976;SDS011;10647;51.016;3.720;2023-04-19T07:26:50;21.73;;;14.97;;
20976;SDS011;10647;51.016;3.720;2023-04-19T07:29:17;19.57;;;12.90;;
20976;SDS011;10647;51.016;3.720;2023-04-19T07:31:45;21.70;;;14.87;;
20976;SDS011;10647;51.016;3.720;2023-04-19T07:34:12;21.73;;;13.47;;
20976;SDS011;10647;51.016;3.720;2023-04-19T07:36:40;21.87;;;13.70;;
20976;SDS011;10647;51.016;3.720;2023-04-19T07:39:07;22.30;;;14.80;;
20976;SDS011;10647;51.016;3.720;2023-04-19T07:41:36;20.77;;;14.33;;
20976;SDS011;10647;51.016;3.720;2023-04-19T07:44:04;21.03;;;13.93;;
20976;SDS011;10647;51.016;3.720;2023-04-19T07:46:31;22.40;;;14.27;;
20976;SDS011;10647;51.016;3.720;2023-04-19T07:48:59;21.73;;;13.60;;
20976;SDS011;10647;51.016;3.720;2023-04-19T07:51:26;21.20;;;11.80;;
20976;SDS011;10647;51.016;3.720;2023-04-19T07:53:54;20.47;;;12.50;;
20976;SDS011;10647;51.016;3.720;2023-04-19T07:56:21;21.40;;;14.43;;
20976;SDS011;10647;51.016;3.720;2023-04-19T07:58:51;19.57;;;12.97;;
20976;SDS011;10647;51.016;3.720;2023-04-19T08:01:18;22.73;;;12.83;;
20976;SDS011;10647;51.016;3.720;2023-04-19T08:03:46;19.20;;;13.33;;
20976;SDS011;10647;51.016;3.720;2023-04-19T08:06:13;19.37;;;12.30;;
20976;SDS011;10647;51.016;3.720;2023-04-19T08:08:48;17.53;;;11.87;;
20976;SDS011;10647;51.016;3.720;2023-04-19T08:11:15;14.13;;;10.03;;
20976;SDS011;10647;51.016;3.720;2023-04-19T08:13:43;18.03;;;12.37;;
20976;SDS011;10647;51.016;3.720;2023-04-19T08:16:10;23.73;;;13.40;;
20976;SDS011;10647;51.016;3.720;2023-04-19T08:18:38;20.23;;;11.83;;
20976;SDS011;10647;51.016;3.720;2023-04-19T08:21:06;17.97;;;11.27;;
20976;SDS011;10647;51.016;3.720;2023-04-19T08:23:34;18.77;;;9.47;;
20976;SDS011;10647;51.016;3.720;2023-04-19T08:26:01;14.13;;;8.90;;
20976;SDS011;10647;51.016;3.720;2023-04-19T08:28:29;17.67;;;11.13;;
20976;SDS011;10647;51.016;3.720;2023-04-19T08:33:24;16.60;;;11.57;;
20976;SDS011;10647;51.016;3.720;2023-04-19T08:35:52;19.43;;;11.43;;
20976;SDS011;10647;51.016;3.720;2023-04-19T08:38:20;17.03;;;7.50;;
20976;SDS011;10647;51.016;3.720;2023-04-19T08:40:51;16.30;;;9.30;;
20976;SDS011;10647;51.016;3.720;2023-04-19T08:43:20;15.57;;;10.63;;
20976;SDS011;10647;51.016;3.720;2023-04-19T08:45:49;15.77;;;10.73;;
20976;SDS011;10647;51.016;3.720;2023-04-19T08:48:17;13.03;;;7.83;;
20976;SDS011;10647;51.016;3.720;2023-04-19T08:50:47;17.00;;;11.17;;
20976;SDS011;10647;51.016;3.720;2023-04-19T08:53:16;15.50;;;10.80;;
20976;SDS011;10647;51.016;3.720;2023-04-19T08:55:45;14.73;;;11.23;;
20976;SDS011;10647;51.016;3.720;2023-04-19T08:58:13;15.27;;;11.97;;
20976;SDS011;10647;51.016;3.720;2023-04-19T09:00:40;17.63;;;11.43;;
20976;SDS011;10647;51.016;3.720;2023-04-19T09:03:08;16.47;;;10.33;;
20976;SDS011;10647;51.016;3.720;2023-04-19T09:05:36;18.90;;;10.80;;
20976;SDS011;10647;51.016;3.720;2023-04-19T09:10:58;16.10;;;10.53;;
20976;SDS011;10647;51.016;3.720;2023-04-19T09:13:27;15.28;;;10.68;;
20976;SDS011;10647;51.016;3.720;2023-04-19T09:18:55;14.63;;;9.70;;
20976;SDS011;10647;51.016;3.720;2023-04-19T09:21:27;16.70;;;10.03;;
20976;SDS011;10647;51.016;3.720;2023-04-19T09:23:56;14.30;;;9.63;;
20976;SDS011;10647;51.016;3.720;2023-04-19T09:26:24;17.25;;;10.48;;
20976;SDS011;10647;51.016;3.720;2023-04-19T09:31:42;17.57;;;6.93;;
20976;SDS011;10647;51.016;3.720;2023-04-19T09:34:13;17.53;;;10.27;;
20976;SDS011;10647;51.016;3.720;2023-04-19T09:36:42;12.80;;;9.50;;
20976;SDS011;10647;51.016;3.720;2023-04-19T09:39:11;12.73;;;9.30;;
20976;SDS011;10647;51.016;3.720;2023-04-19T09:41:51;13.40;;;9.37;;
20976;SDS011;10647;51.016;3.720;2023-04-19T09:44:19;14.93;;;9.63;;
20976;SDS011;10647;51.016;3.720;2023-04-19T09:46:47;13.80;;;9.63;;
20976;SDS011;10647;51.016;3.720;2023-04-19T09:49:17;14.43;;;9.40;;
20976;SDS011;10647;51.016;3.720;2023-04-19T09:51:46;12.10;;;8.53;;
20976;SDS011;10647;51.016;3.720;2023-04-19T09:54:17;12.03;;;8.97;;
20976;SDS011;10647;51.016;3.720;2023-04-19T09:56:45;12.10;;;8.43;;
20976;SDS011;10647;51.016;3.720;2023-04-19T09:59:14;10.83;;;8.07;;
20976;SDS011;10647;51.016;3.720;2023-04-19T10:01:46;11.53;;;8.17;;
20976;SDS011;10647;51.016;3.720;2023-04-19T10:04:15;11.13;;;8.17;;
20976;SDS011;10647;51.016;3.720;2023-04-19T10:06:50;14.07;;;8.20;;
20976;SDS011;10647;51.016;3.720;2023-04-19T10:09:22;13.80;;;8.73;;
20976;SDS011;10647;51.016;3.720;2023-04-19T10:11:51;11.70;;;7.40;;
20976;SDS011;10647;51.016;3.720;2023-04-19T10:14:23;10.70;;;7.10;;
20976;SDS011;10647;51.016;3.720;2023-04-19T10:16:52;11.15;;;7.12;;
20976;SDS011;10647;51.016;3.720;2023-04-19T10:19:21;10.48;;;8.00;;
20976;SDS011;10647;51.016;3.720;2023-04-19T10:21:49;10.95;;;7.62;;
20976;SDS011;10647;51.016;3.720;2023-04-19T10:24:17;10.32;;;6.58;;
20976;SDS011;10647;51.016;3.720;2023-04-19T10:32:42;9.10;;;6.60;;
20976;SDS011;10647;51.016;3.720;2023-04-19T10:35:15;8.13;;;5.83;;
20976;SDS011;10647;51.016;3.720;2023-04-19T10:37:39;10.15;;;5.42;;
20976;SDS011;10647;51.016;3.720;2023-04-19T10:40:07;13.18;;;5.50;;
20976;SDS011;10647;51.016;3.720;2023-04-19T10:45:41;7.42;;;4.37;;
20976;SDS011;10647;51.016;3.720;2023-04-19T10:51:04;8.78;;;6.62;;
20976;SDS011;10647;51.016;3.720;2023-04-19T10:53:49;8.38;;;6.50;;
20976;SDS011;10647;51.016;3.720;2023-04-19T10:56:21;8.15;;;5.08;;
20976;SDS011;10647;51.016;3.720;2023-04-19T11:01:39;11.68;;;6.28;;
20976;SDS011;10647;51.016;3.720;2023-04-19T11:04:14;8.48;;;5.75;;
20976;SDS011;10647;51.016;3.720;2023-04-19T11:09:27;8.23;;;6.08;;
20976;SDS011;10647;51.016;3.720;2023-04-19T11:12:10;8.65;;;6.60;;
20976;SDS011;10647;51.016;3.720;2023-04-19T11:14:40;9.43;;;6.87;;
20976;SDS011;10647;51.016;3.720;2023-04-19T11:17:15;8.25;;;6.60;;
20976;SDS011;10647;51.016;3.720;2023-04-19T11:19:58;12.10;;;6.92;;
20976;SDS011;10647;51.016;3.720;2023-04-19T11:22:44;11.03;;;7.80;;
20976;SDS011;10647;51.016;3.720;2023-04-19T11:25:16;9.70;;;7.87;;
20976;SDS011;10647;51.016;3.720;2023-04-19T11:27:46;9.48;;;7.50;;
20976;SDS011;10647;51.016;3.720;2023-04-19T11:30:15;11.73;;;8.55;;
20976;SDS011;10647;51.016;3.720;2023-04-19T11:32:46;9.75;;;8.00;;
20976;SDS011;10647;51.016;3.720;2023-04-19T11:35:22;12.37;;;7.87;;
20976;SDS011;10647;51.016;3.720;2023-04-19T11:37:52;11.57;;;7.95;;
20976;SDS011;10647;51.016;3.720;2023-04-19T11:40:23;9.28;;;7.42;;
20976;SDS011;10647;51.016;3.720;2023-04-19T11:42:57;11.45;;;6.65;;
20976;SDS011;10647;51.016;3.720;2023-04-19T11:45:32;11.78;;;7.70;;
20976;SDS011;10647;51.016;3.720;2023-04-19T11:48:01;10.80;;;7.45;;
20976;SDS011;10647;51.016;3.720;2023-04-19T11:50:34;15.00;;;9.10;;
20976;SDS011;10647;51.016;3.720;2023-04-19T11:53:12;13.62;;;8.80;;
20976;SDS011;10647;51.016;3.720;2023-04-19T11:55:51;10.95;;;8.68;;
20976;SDS011;10647;51.016;3.720;2023-04-19T11:58:26;13.30;;;8.68;;
20976;SDS011;10647;51.016;3.720;2023-04-19T12:01:10;11.18;;;7.70;;
20976;SDS011;10647;51.016;3.720;2023-04-19T12:03:39;10.50;;;7.90;;
20976;SDS011;10647;51.016;3.720;2023-04-19T12:06:22;10.18;;;8.00;;
20976;SDS011;10647;51.016;3.720;2023-04-19T12:08:42;11.03;;;8.03;;
20976;SDS011;10647;51.016;3.720;2023-04-19T12:11:14;11.15;;;8.05;;
20976;SDS011;10647;51.016;3.720;2023-04-19T12:13:46;12.13;;;9.25;;
20976;SDS011;10647;51.016;3.720;2023-04-19T12:16:15;11.28;;;8.60;;
20976;SDS011;10647;51.016;3.720;2023-04-19T12:18:46;12.13;;;8.50;;
20976;SDS011;10647;51.016;3.720;2023-04-19T12:21:25;13.72;;;9.25;;
20976;SDS011;10647;51.016;3.720;2023-04-19T12:23:54;13.68;;;8.63;;
20976;SDS011;10647;51.016;3.720;2023-04-19T12:26:23;11.10;;;8.55;;
20976;SDS011;10647;51.016;3.720;2023-04-19T12:28:53;12.63;;;9.23;;
20976;SDS011;10647;51.016;3.720;2023-04-19T12:31:21;11.20;;;8.40;;
20976;SDS011;10647;51.016;3.720;2023-04-19T12:33:48;11.10;;;8.00;;
20976;SDS011;10647;51.016;3.720;2023-04-19T12:36:17;11.22;;;7.67;;
20976;SDS011;10647;51.016;3.720;2023-04-19T12:38:44;12.63;;;8.08;;
20976;SDS011;10647;51.016;3.720;2023-04-19T12:41:12;15.95;;;8.10;;
20976;SDS011;10647;51.016;3.720;2023-04-19T12:43:39;12.88;;;8.55;;
20976;SDS011;10647;51.016;3.720;2023-04-19T12:46:07;11.50;;;8.08;;
20976;SDS011;10647;51.016;3.720;2023-04-19T12:48:34;14.58;;;8.03;;
20976;SDS011;10647;51.016;3.720;2023-04-19T12:51:02;9.73;;;7.37;;
20976;SDS011;10647;51.016;3.720;2023-04-19T12:53:33;12.75;;;7.37;;
20976;SDS011;10647;51.016;3.720;2023-04-19T12:56:00;11.57;;;7.03;;
20976;SDS011;10647;51.016;3.720;2023-04-19T12:58:28;10.23;;;7.20;;
20976;SDS011;10647;51.016;3.720;2023-04-19T13:00:56;9.33;;;6.80;;
20976;SDS011;10647;51.016;3.720;2023-04-19T13:03:24;9.40;;;6.90;;
20976;SDS011;10647;51.016;3.720;2023-04-19T13:05:53;12.00;;;6.97;;
20976;SDS011;10647;51.016;3.720;2023-04-19T13:08:21;9.95;;;7.05;;
20976;SDS011;10647;51.016;3.720;2023-04-19T13:10:48;7.90;;;6.10;;
20976;SDS011;10647;51.016;3.720;2023-04-19T13:13:16;8.28;;;5.50;;
20976;SDS011;10647;51.016;3.720;2023-04-19T13:15:43;10.00;;;5.83;;
20976;SDS011;10647;51.016;3.720;2023-04-19T13:18:11;11.15;;;5.92;;
20976;SDS011;10647;51.016;3.720;2023-04-19T13:20:38;12.03;;;5.78;;
20976;SDS011;10647;51.016;3.720;2023-04-19T13:23:06;11.63;;;4.75;;
20976;SDS011;10647;51.016;3.720;2023-04-19T13:25:33;8.20;;;5.03;;
20976;SDS011;10647;51.016;3.720;2023-04-19T13:28:01;7.55;;;4.97;;
20976;SDS011;10647;51.016;3.720;2023-04-19T13:30:28;8.03;;;5.25;;
20976;SDS011;10647;51.016;3.720;2023-04-19T13:32:56;6.45;;;4.35;;
20976;SDS011;10647;51.016;3.720;2023-04-19T13:35:25;8.15;;;5.10;;
20976;SDS011;10647;51.016;3.720;2023-04-19T13:37:53;8.40;;;4.70;;
20976;SDS011;10647;51.016;3.720;2023-04-19T13:40:21;9.65;;;4.65;;
20976;SDS011;10647;51.016;3.720;2023-04-19T13:42:48;7.10;;;4.45;;
20976;SDS011;10647;51.016;3.720;2023-04-19T13:45:16;9.23;;;4.37;;
20976;SDS011;10647;51.016;3.720;2023-04-19T13:47:44;8.33;;;4.28;;
20976;SDS011;10647;51.016;3.720;2023-04-19T13:50:11;6.83;;;4.12;;
20976;SDS011;10647;51.016;3.720;2023-04-19T13:52:39;4.35;;;3.83;;
20976;SDS011;10647;51.016;3.720;2023-04-19T13:55:07;7.55;;;3.95;;
20976;SDS011;10647;51.016;3.720;2023-04-19T13:57:35;4.72;;;3.72;;
20976;SDS011;10647;51.016;3.720;2023-04-19T14:00:02;6.65;;;3.62;;
20976;SDS011;10647;51.016;3.720;2023-04-19T14:02:31;7.75;;;3.65;;
20976;SDS011;10647;51.016;3.720;2023-04-19T14:04:59;9.23;;;3.85;;
20976;SDS011;10647;51.016;3.720;2023-04-19T14:07:27;6.53;;;3.70;;
20976;SDS011;10647;51.016;3.720;2023-04-19T14:09:54;4.37;;;3.15;;
20976;SDS011;10647;51.016;3.720;2023-04-19T14:12:23;4.83;;;3.55;;
20976;SDS011;10647;51.016;3.720;2023-04-19T14:14:51;7.25;;;3.75;;
20976;SDS011;10647;51.016;3.720;2023-04-19T14:17:19;6.25;;;3.27;;
20976;SDS011;10647;51.016;3.720;2023-04-19T14:19:46;7.97;;;2.92;;
20976;SDS011;10647;51.016;3.720;2023-04-19T14:22:18;5.83;;;3.08;;
20976;SDS011;10647;51.016;3.720;2023-04-19T14:24:45;5.33;;;3.02;;
20976;SDS011;10647;51.016;3.720;2023-04-19T14:27:13;6.97;;;3.00;;
20976;SDS011;10647;51.016;3.720;2023-04-19T14:29:40;6.67;;;2.90;;
20976;SDS011;10647;51.016;3.720;2023-04-19T14:32:08;3.85;;;2.50;;
20976;SDS011;10647;51.016;3.720;2023-04-19T14:34:36;6.17;;;2.90;;
20976;SDS011;10647;51.016;3.720;2023-04-19T14:37:04;6.15;;;2.60;;
20976;SDS011;10647;51.016;3.720;2023-04-19T14:39:31;5.83;;;2.90;;
20976;SDS011;10647;51.016;3.720;2023-04-19T14:41:59;3.58;;;2.90;;
20976;SDS011;10647;51.016;3.720;2023-04-19T14:44:27;4.95;;;2.60;;
20976;SDS011;10647;51.016;3.720;2023-04-19T14:46:55;3.60;;;2.27;;
20976;SDS011;10647;51.016;3.720;2023-04-19T14:49:22;6.35;;;3.02;;
20976;SDS011;10647;51.016;3.720;2023-04-19T14:51:50;7.40;;;2.37;;
20976;SDS011;10647;51.016;3.720;2023-04-19T14:54:18;7.25;;;2.33;;
20976;SDS011;10647;51.016;3.720;2023-04-19T14:56:46;6.08;;;2.70;;
20976;SDS011;10647;51.016;3.720;2023-04-19T14:59:13;8.35;;;2.50;;
20976;SDS011;10647;51.016;3.720;2023-04-19T15:01:41;5.45;;;2.45;;
20976;SDS011;10647;51.016;3.720;2023-04-19T15:04:09;5.33;;;2.42;;
20976;SDS011;10647;51.016;3.720;2023-04-19T15:06:36;4.10;;;2.50;;
20976;SDS011;10647;51.016;3.720;2023-04-19T15:09:04;4.65;;;2.40;;
20976;SDS011;10647;51.016;3.720;2023-04-19T15:11:31;4.95;;;2.42;;
20976;SDS011;10647;51.016;3.720;2023-04-19T15:13:59;3.25;;;2.33;;
20976;SDS011;10647;51.016;3.720;2023-04-19T15:16:27;4.83;;;2.50;;
20976;SDS011;10647;51.016;3.720;2023-04-19T15:18:55;3.95;;;2.40;;
20976;SDS011;10647;51.016;3.720;2023-04-19T15:21:22;8.88;;;2.92;;
20976;SDS011;10647;51.016;3.720;2023-04-19T15:23:50;3.60;;;2.45;;
20976;SDS011;10647;51.016;3.720;2023-04-19T15:26:17;6.17;;;3.20;;
20976;SDS011;10647;51.016;3.720;2023-04-19T15:28:46;7.58;;;3.12;;